OTBH/IUD METAR and TAF weather

Enter ICAO airport designator
Station Type Date Time Source
OTBH METAR 2018/12/10 10:56 UTC NOAA

OTBH 101056Z 00000KT 9000 HZ FEW100 27/12 A2997 RMK AO2A SLP150 T02720120 $


Station Type Date Time Source
OTBH Decoded METAR 2018/12/10 10:56 UTC NOAA

Station name not available
Dec 10, 2018 - 05:56 AM EST / 2018.12.10 1056 UTC
Wind: Calm:0
Visibility: 5 mile(s):0
Sky conditions: mostly clear
Weather: haze
Temperature: 81.0 F (27.2 C)
Dew Point: 53.6 F (12.0 C)
Relative Humidity: 38%
Pressure (altimeter): 29.97 in. Hg (1014 hPa)
ob: OTBH 101056Z 00000KT 9000 HZ FEW100 27/12 A2997 RMK AO2A SLP150 T02720120
cycle: 11

Station Type Date Time Source
OTBH TAF 2018/12/10 23:30 UTC NOAA

TAF TAF OTBH 092300Z 0923/1105 34006KT 9000 HZ FEW200 QNH2999INS TX27/1012Z TN17/1003Z


Example: see airport list